Главная страница
METAR-TAF:

METAR-TAF

Аэропорты :

Olean, Нью-Йорк, США

широта: 42-14-28N, долгота: 078-22-17W, высота над уровнем моря: 651 м

Текущие метеонаблюдения

Эта сводка был подготовлена 6 минут назад, в 01:15 UTC
Ветер 5 Узел от южный-юго-западный
Температура 21°C
Влажность 78%
Давление 1017 hPa
Видимость: 16.1 км
ясное небо

METAR: KOLE 230115Z AUTO 21005KT 10SM CLR 21/17 A3003 RMK AO2

Время: 21:21 (01:21 UTC)


TAF: отсутствует

Метеонаблюдения и прогнозы для более 4000 аэропортов (сводки METAR и TAF).

Имеющиеся станции представлены на карте желтыми и красными точками.

Чтобы увидеть название станции, наведите на нее мышь.

Затем щелкните, чтобы увидеть метеонаблюдения и метеопрогнозы.

Управление картой: чтобы увеличить масштаб, щелкните зеленые кнопки с черным крестиком; чтобы уменьшить масштаб, щелкните зеленую кнопку с тире; для просмотра соседних карт щелкайте зеленые стрелки.


METAR-TAF: